Time;durP1;ratioP1;P1;durP2;ratioP2;P2;SDS_P1;SDS_P2;PMS_P1;PMS_P2;Temp;Humidity;BMP_temperature;BMP_pressure;BME280_temperature;BME280_humidity;BME280_pressure;Samples;Min_cycle;Max_cycle;Signal;HPM_P1;HPM_P2
2021/03/10 00:00:09;;;;;;;1.13;0.67;;;6.60;99.90;;;;;;5030410;28;20212;-86
2021/03/10 00:02:34;;;;;;;0.40;0.40;;;6.60;99.90;;;;;;5032877;28;20237;-86
2021/03/10 00:05:00;;;;;;;0.67;0.53;;;6.60;99.90;;;;;;5032080;28;20627;-86
2021/03/10 00:07:25;;;;;;;0.37;0.33;;;6.70;99.90;;;;;;5032353;28;20247;-85
2021/03/10 00:09:52;;;;;;;0.97;0.47;;;6.70;99.90;;;;;;5031982;28;20241;-86
2021/03/10 00:12:18;;;;;;;1.80;0.30;;;6.70;99.90;;;;;;5022271;28;20322;-84
2021/03/10 00:14:43;;;;;;;0.60;0.60;;;6.70;99.90;;;;;;5032452;28;20185;-85
2021/03/10 00:17:09;;;;;;;0.47;0.43;;;6.70;99.90;;;;;;5030766;28;20544;-86
2021/03/10 00:19:35;;;;;;;0.83;0.83;;;6.70;99.90;;;;;;5031088;28;20218;-86
2021/03/10 00:22:01;;;;;;;1.90;0.60;;;6.70;99.90;;;;;;5031636;28;20195;-85
2021/03/10 00:24:27;;;;;;;0.63;0.63;;;6.80;99.90;;;;;;5031694;28;20216;-85
2021/03/10 00:26:52;;;;;;;0.33;0.33;;;6.70;99.90;;;;;;5031693;28;20273;-86
2021/03/10 00:29:18;;;;;;;0.67;0.63;;;6.70;99.90;;;;;;5032369;28;20191;-86
2021/03/10 00:31:43;;;;;;;2.50;2.07;;;6.60;99.90;;;;;;5032190;28;20210;-86
2021/03/10 00:34:09;;;;;;;1.00;0.90;;;6.60;99.90;;;;;;5031749;28;20202;-86
2021/03/10 00:36:35;;;;;;;1.33;0.83;;;6.60;99.90;;;;;;5031522;28;20194;-85
2021/03/10 00:39:00;;;;;;;3.30;0.63;;;6.50;99.90;;;;;;5031808;28;20179;-86
2021/03/10 00:41:26;;;;;;;0.40;0.40;;;6.50;99.90;;;;;;5026923;28;20196;-85
2021/03/10 00:43:51;;;;;;;0.97;0.40;;;6.50;99.90;;;;;;5031266;28;20206;-87
2021/03/10 00:46:17;;;;;;;0.93;0.90;;;6.50;99.90;;;;;;5041375;28;20218;-85
2021/03/10 00:48:42;;;;;;;1.17;0.67;;;6.40;99.90;;;;;;5031698;28;20189;-86
2021/03/10 00:51:08;;;;;;;0.60;0.60;;;6.40;99.90;;;;;;5031418;28;20297;-86
2021/03/10 00:53:34;;;;;;;0.30;0.30;;;6.50;99.90;;;;;;5031844;28;20213;-86
2021/03/10 00:55:59;;;;;;;1.03;1.03;;;6.50;99.90;;;;;;5033007;28;20198;-85
2021/03/10 00:58:25;;;;;;;3.60;0.67;;;6.50;99.90;;;;;;5032915;28;20237;-85
2021/03/10 01:00:50;;;;;;;0.70;0.40;;;6.50;99.90;;;;;;5037696;28;20198;-85
2021/03/10 01:03:16;;;;;;;0.70;0.70;;;6.50;99.90;;;;;;5033284;28;20321;-85
2021/03/10 01:05:43;;;;;;;3.57;2.97;;;6.50;99.90;;;;;;5031241;28;20208;-85
2021/03/10 01:08:09;;;;;;;0.10;0.10;;;6.50;99.90;;;;;;5031939;28;20183;-85
2021/03/10 01:10:34;;;;;;;0.70;0.30;;;6.60;99.90;;;;;;5028081;28;20221;-86
2021/03/10 01:13:00;;;;;;;0.50;0.50;;;6.60;99.90;;;;;;5031576;28;20296;-86
2021/03/10 01:15:26;;;;;;;6.50;0.43;;;6.60;99.90;;;;;;5030258;28;20182;-86
2021/03/10 01:17:51;;;;;;;0.53;0.53;;;6.50;99.90;;;;;;5029809;28;20186;-84
2021/03/10 01:20:20;;;;;;;0.27;0.27;;;6.60;99.90;;;;;;5029974;28;20297;-86
2021/03/10 01:22:46;;;;;;;0.47;0.47;;;6.60;99.90;;;;;;5031789;28;20218;-86
2021/03/10 01:25:13;;;;;;;0.10;0.10;;;6.70;99.90;;;;;;5031637;28;20210;-86
2021/03/10 01:27:39;;;;;;;0.10;0.10;;;6.70;99.90;;;;;;5044307;28;20191;-86
2021/03/10 01:30:09;;;;;;;0.63;0.47;;;6.70;99.90;;;;;;5019780;28;20220;-86
2021/03/10 01:32:36;;;;;;;0.67;0.40;;;6.70;99.90;;;;;;5030479;28;20206;-86
2021/03/10 01:35:03;;;;;;;0.73;0.47;;;6.70;99.90;;;;;;5032140;28;20198;-86
2021/03/10 01:37:28;;;;;;;1.13;0.43;;;6.70;99.90;;;;;;5028541;28;20644;-86
2021/03/10 01:39:54;;;;;;;0.57;0.40;;;6.70;99.90;;;;;;5024878;28;20216;-86
2021/03/10 01:42:21;;;;;;;1.03;0.40;;;6.70;99.90;;;;;;5028052;28;20635;-86
2021/03/10 01:44:47;;;;;;;0.77;0.77;;;6.70;99.90;;;;;;5029994;28;20273;-86
2021/03/10 01:47:14;;;;;;;0.27;0.27;;;6.60;99.90;;;;;;5029124;28;20269;-85
2021/03/10 01:49:40;;;;;;;0.20;0.20;;;6.70;99.90;;;;;;5045329;28;20281;-86
2021/03/10 01:52:06;;;;;;;1.40;0.70;;;6.60;99.90;;;;;;5031319;28;20701;-86
2021/03/10 01:54:32;;;;;;;1.50;0.60;;;6.60;99.90;;;;;;5023766;28;20184;-85
2021/03/10 01:56:57;;;;;;;2.90;0.53;;;6.70;99.90;;;;;;5029176;28;20182;-86
2021/03/10 01:59:23;;;;;;;0.40;0.33;;;6.70;99.90;;;;;;5052571;28;20276;-85
2021/03/10 02:01:49;;;;;;;1.60;1.40;;;6.80;99.90;;;;;;5026574;28;20182;-85
2021/03/10 02:04:15;;;;;;;0.20;0.20;;;6.80;99.90;;;;;;5030326;28;20264;-86
2021/03/10 02:07:08;;;;;;;0.30;0.30;;;6.80;99.90;;;;;;5029498;28;20942;-85
2021/03/10 02:09:55;;;;;;;0.50;0.40;;;6.80;99.90;;;;;;5030189;28;20273;-86
2021/03/10 02:12:48;;;;;;;0.67;0.67;;;6.70;99.90;;;;;;5028806;28;20215;-86
2021/03/10 02:18:44;;;;;;;0.40;0.40;;;6.70;99.90;;;;;;4965942;28;20250;-86
2021/03/10 02:21:32;;;;;;;0.33;0.20;;;6.70;99.90;;;;;;5031430;28;20183;-86
2021/03/10 02:24:28;;;;;;;0.37;0.37;;;6.70;99.90;;;;;;5029932;28;20194;-86
2021/03/10 02:27:34;;;;;;;0.30;0.30;;;6.70;99.90;;;;;;5021339;28;20187;-86
2021/03/10 02:30:11;;;;;;;0.17;0.17;;;6.70;99.90;;;;;;5025792;28;20210;-86
2021/03/10 02:32:39;;;;;;;0.40;0.40;;;6.80;99.90;;;;;;5030998;28;20600;-86
2021/03/10 02:35:07;;;;;;;0.67;0.67;;;6.80;99.90;;;;;;5030770;28;20180;-86
2021/03/10 02:37:35;;;;;;;0.43;0.43;;;6.70;99.90;;;;;;5029929;28;20182;-86
2021/03/10 02:40:02;;;;;;;0.47;0.47;;;6.70;99.90;;;;;;5029708;28;20190;-86
2021/03/10 02:42:29;;;;;;;0.50;0.50;;;6.70;99.90;;;;;;5030078;28;20289;-87
2021/03/10 02:44:56;;;;;;;0.33;0.33;;;6.60;99.90;;;;;;5034941;28;20557;-86
2021/03/10 02:47:24;;;;;;;0.30;0.30;;;6.50;99.90;;;;;;5033533;28;20594;-86
2021/03/10 02:49:52;;;;;;;0.10;0.10;;;6.60;99.90;;;;;;5032464;28;20183;-86
2021/03/10 02:52:19;;;;;;;0.20;0.20;;;6.60;99.90;;;;;;5034620;28;20233;-86
2021/03/10 02:54:45;;;;;;;1.23;0.70;;;6.50;99.90;;;;;;5033182;28;20537;-85
2021/03/10 02:57:11;;;;;;;0.20;0.20;;;6.40;99.90;;;;;;5033142;28;20185;-85
2021/03/10 02:59:38;;;;;;;1.13;0.53;;;6.40;99.90;;;;;;5032519;28;20248;-86
2021/03/10 03:02:03;;;;;;;0.53;0.53;;;6.40;99.90;;;;;;5030686;28;20187;-86
2021/03/10 03:04:29;;;;;;;0.30;0.30;;;6.50;99.90;;;;;;5032708;28;20545;-86
2021/03/10 03:06:54;;;;;;;0.33;0.33;;;6.50;99.90;;;;;;5033340;28;20192;-86
2021/03/10 03:09:20;;;;;;;0.20;0.20;;;6.60;99.90;;;;;;5025105;28;20194;-87
2021/03/10 03:11:46;;;;;;;0.33;0.30;;;6.60;99.90;;;;;;5033526;28;20353;-86
2021/03/10 03:14:12;;;;;;;0.57;0.23;;;6.50;99.90;;;;;;5033850;28;20206;-86
2021/03/10 03:16:39;;;;;;;0.20;0.20;;;6.60;99.90;;;;;;5032555;28;20212;-87
2021/03/10 03:19:05;;;;;;;1.50;0.60;;;6.60;99.90;;;;;;5032538;28;20683;-86
2021/03/10 03:21:33;;;;;;;0.30;0.30;;;6.60;99.90;;;;;;5032499;28;20690;-86
2021/03/10 03:23:59;;;;;;;0.30;0.30;;;6.60;99.90;;;;;;5032623;28;20225;-86
2021/03/10 03:26:25;;;;;;;0.33;0.33;;;6.60;99.90;;;;;;5034230;28;20186;-87
2021/03/10 03:28:53;;;;;;;0.63;0.63;;;6.60;99.90;;;;;;5033862;28;20191;-86
2021/03/10 03:31:19;;;;;;;0.10;0.10;;;6.60;99.90;;;;;;5033307;28;20206;-86
2021/03/10 03:33:45;;;;;;;0.10;0.10;;;6.60;99.90;;;;;;5028633;28;20215;-86
2021/03/10 03:36:11;;;;;;;0.23;0.23;;;6.60;99.90;;;;;;5031110;28;20556;-86
2021/03/10 03:38:38;;;;;;;0.63;0.50;;;6.60;99.90;;;;;;5026245;28;20190;-86
2021/03/10 03:41:04;;;;;;;0.37;0.37;;;6.50;99.90;;;;;;5029032;28;20686;-86
2021/03/10 03:43:29;;;;;;;0.10;0.10;;;6.60;99.90;;;;;;5048605;28;20234;-87
2021/03/10 03:45:55;;;;;;;0.20;0.20;;;6.60;99.90;;;;;;5031171;28;20643;-86
2021/03/10 03:48:22;;;;;;;1.00;0.43;;;6.60;99.90;;;;;;5025895;28;20644;-86
2021/03/10 03:50:48;;;;;;;0.60;0.37;;;6.60;99.90;;;;;;5031529;28;20206;-86
2021/03/10 03:53:14;;;;;;;0.40;0.20;;;6.70;99.90;;;;;;5032080;28;20204;-87
2021/03/10 03:55:41;;;;;;;0.57;0.57;;;6.70;99.90;;;;;;5031151;28;20193;-86
2021/03/10 03:58:07;;;;;;;1.73;0.53;;;6.70;99.90;;;;;;5032554;28;20317;-86
2021/03/10 04:00:32;;;;;;;0.70;0.50;;;6.70;99.90;;;;;;5024272;28;20285;-86
2021/03/10 04:02:58;;;;;;;0.73;0.70;;;6.70;99.90;;;;;;5031813;28;20696;-86
2021/03/10 04:05:25;;;;;;;1.23;0.50;;;6.70;99.90;;;;;;5031141;28;20191;-86
2021/03/10 04:07:53;;;;;;;1.43;1.23;;;6.60;99.90;;;;;;5031090;28;20723;-86
2021/03/10 04:10:29;;;;;;;1.37;0.57;;;6.60;99.90;;;;;;5031736;28;20221;-86
2021/03/10 04:12:56;;;;;;;3.53;0.97;;;6.50;99.90;;;;;;5024224;28;20215;-86
2021/03/10 04:15:22;;;;;;;3.77;0.57;;;6.50;99.90;;;;;;5025858;28;20217;-86
2021/03/10 04:17:49;;;;;;;0.13;0.13;;;6.50;99.90;;;;;;5029011;28;20564;-86
2021/03/10 04:20:17;;;;;;;0.67;0.67;;;6.50;99.90;;;;;;5023892;28;20198;-86
2021/03/10 04:22:44;;;;;;;0.17;0.17;;;6.50;99.90;;;;;;5033566;28;20261;-86
2021/03/10 04:25:11;;;;;;;0.43;0.37;;;6.40;99.90;;;;;;5032069;28;20282;-86
2021/03/10 04:27:37;;;;;;;2.10;0.77;;;6.30;99.90;;;;;;5031993;28;20244;-87
2021/03/10 04:30:05;;;;;;;0.77;0.77;;;6.40;99.90;;;;;;5032572;28;20210;-87
2021/03/10 04:32:31;;;;;;;0.33;0.33;;;6.50;99.90;;;;;;5047814;28;20207;-86
2021/03/10 04:34:56;;;;;;;0.70;0.50;;;6.50;99.90;;;;;;5028192;28;20241;-87
2021/03/10 04:37:22;;;;;;;0.70;0.50;;;6.50;99.90;;;;;;5029669;28;20659;-86
2021/03/10 04:39:47;;;;;;;0.40;0.40;;;6.50;99.90;;;;;;5032025;28;20253;-86
2021/03/10 04:42:13;;;;;;;0.10;0.10;;;6.40;99.90;;;;;;5031681;28;20213;-86
2021/03/10 04:44:39;;;;;;;0.63;0.63;;;6.40;99.90;;;;;;5029580;28;20240;-87
2021/03/10 04:47:04;;;;;;;0.67;0.50;;;6.50;99.90;;;;;;5032799;28;20186;-87
2021/03/10 04:49:30;;;;;;;1.03;0.20;;;6.50;99.90;;;;;;5031438;28;20562;-87
2021/03/10 04:51:55;;;;;;;0.50;0.27;;;6.40;99.90;;;;;;5031145;28;20240;-86
2021/03/10 04:54:21;;;;;;;1.17;0.80;;;6.40;99.90;;;;;;5030899;28;20296;-87
2021/03/10 04:56:47;;;;;;;0.40;0.40;;;6.40;99.90;;;;;;5023093;28;20183;-87
2021/03/10 04:59:12;;;;;;;2.53;0.67;;;6.40;99.90;;;;;;5047595;28;20206;-87
2021/03/10 05:01:38;;;;;;;0.63;0.63;;;6.30;99.90;;;;;;5030704;28;20194;-86
2021/03/10 05:04:04;;;;;;;1.13;0.73;;;6.30;99.90;;;;;;5031731;28;20227;-86
2021/03/10 05:06:29;;;;;;;0.90;0.57;;;6.30;99.90;;;;;;5030575;28;20209;-86
2021/03/10 05:08:55;;;;;;;1.07;0.97;;;6.30;99.90;;;;;;5047383;28;20195;-86
2021/03/10 05:11:21;;;;;;;0.10;0.10;;;6.30;99.90;;;;;;5029780;28;20585;-86
2021/03/10 05:13:48;;;;;;;0.50;0.50;;;6.20;99.90;;;;;;5032128;28;20202;-86
2021/03/10 05:16:14;;;;;;;0.40;0.23;;;6.10;99.90;;;;;;5020251;28;20185;-86
2021/03/10 05:18:39;;;;;;;0.87;0.67;;;6.20;99.90;;;;;;5035546;28;20270;-86
2021/03/10 05:21:05;;;;;;;0.50;0.30;;;6.30;99.90;;;;;;5030687;28;20282;-86
2021/03/10 05:23:31;;;;;;;0.47;0.20;;;6.30;99.90;;;;;;5029735;28;20226;-85
2021/03/10 05:25:56;;;;;;;1.80;0.50;;;6.40;99.90;;;;;;5030602;28;20183;-85
2021/03/10 05:28:22;;;;;;;0.50;0.50;;;6.20;99.90;;;;;;5028735;28;20217;-85
2021/03/10 05:30:47;;;;;;;0.23;0.23;;;6.20;99.90;;;;;;5018287;28;20206;-85
2021/03/10 05:33:13;;;;;;;0.33;0.27;;;6.20;99.90;;;;;;5029520;28;20206;-85
2021/03/10 05:35:38;;;;;;;0.20;0.20;;;6.30;99.90;;;;;;5029849;28;20281;-84
2021/03/10 05:38:04;;;;;;;0.43;0.43;;;6.30;99.90;;;;;;5038303;28;20655;-84
2021/03/10 05:40:31;;;;;;;3.90;0.77;;;6.40;99.90;;;;;;5041360;28;20186;-85
2021/03/10 05:42:57;;;;;;;1.37;0.70;;;6.40;99.90;;;;;;5030668;28;20686;-85
2021/03/10 05:45:23;;;;;;;0.73;0.50;;;6.40;99.90;;;;;;5031379;28;20189;-85
2021/03/10 05:47:51;;;;;;;2.93;0.50;;;6.30;99.90;;;;;;5030970;28;20194;-84
2021/03/10 05:50:17;;;;;;;2.50;0.83;;;6.30;99.90;;;;;;5030854;28;20287;-85
2021/03/10 05:52:46;;;;;;;1.60;1.50;;;6.30;99.90;;;;;;5031091;28;20204;-86
2021/03/10 05:55:12;;;;;;;0.67;0.63;;;6.30;99.90;;;;;;5034790;28;20182;-85
2021/03/10 05:57:40;;;;;;;0.77;0.77;;;6.30;99.90;;;;;;5041246;28;20214;-84
2021/03/10 06:00:14;;;;;;;0.43;0.30;;;6.30;99.90;;;;;;5053880;28;20181;-86
2021/03/10 06:02:40;;;;;;;0.53;0.53;;;6.30;99.90;;;;;;5036557;28;20208;-85
2021/03/10 06:05:19;;;;;;;0.67;0.67;;;6.30;99.90;;;;;;5032506;28;20273;-85
2021/03/10 06:07:45;;;;;;;0.60;0.57;;;6.30;99.90;;;;;;5033187;28;20244;-85
2021/03/10 06:10:11;;;;;;;0.67;0.60;;;6.30;99.90;;;;;;5047403;28;20174;-85
2021/03/10 06:12:42;;;;;;;0.67;0.67;;;6.30;99.90;;;;;;5031371;28;20706;-85
2021/03/10 06:15:10;;;;;;;1.10;0.73;;;6.30;99.90;;;;;;5040138;28;20194;-85
2021/03/10 06:17:49;;;;;;;1.40;0.60;;;6.40;99.90;;;;;;5051111;28;20220;-85
2021/03/10 06:20:28;;;;;;;0.20;0.20;;;6.40;99.90;;;;;;5036608;28;20182;-85
2021/03/10 06:22:55;;;;;;;0.10;0.10;;;6.40;99.90;;;;;;5037366;28;20259;-87
2021/03/10 06:25:24;;;;;;;0.97;0.47;;;6.50;99.90;;;;;;5034963;28;20193;-86
2021/03/10 06:27:57;;;;;;;0.20;0.20;;;6.50;99.90;;;;;;5033681;28;20198;-86
2021/03/10 06:30:45;;;;;;;2.93;0.67;;;6.50;99.90;;;;;;5029290;28;20206;-85
2021/03/10 06:33:21;;;;;;;0.20;0.20;;;6.60;99.90;;;;;;5034079;28;20202;-85
2021/03/10 06:35:47;;;;;;;0.70;0.63;;;6.70;99.90;;;;;;5042025;28;20272;-85
2021/03/10 06:38:18;;;;;;;0.13;0.10;;;6.70;99.90;;;;;;5036488;28;20234;-86
2021/03/10 06:40:55;;;;;;;0.57;0.37;;;6.70;99.90;;;;;;5033485;28;20197;-86
2021/03/10 06:43:41;;;;;;;1.20;0.63;;;6.80;99.90;;;;;;5045992;28;20252;-85
2021/03/10 06:46:15;;;;;;;1.53;0.70;;;6.90;99.90;;;;;;5028730;28;20229;-84
2021/03/10 06:49:03;;;;;;;1.07;0.33;;;6.90;99.90;;;;;;5031170;28;20621;-84
2021/03/10 06:51:31;;;;;;;0.80;0.50;;;6.90;99.90;;;;;;5029761;28;20214;-85
2021/03/10 06:53:57;;;;;;;0.70;0.67;;;6.90;99.90;;;;;;5033857;28;20205;-86
2021/03/10 06:56:29;;;;;;;0.60;0.60;;;6.80;99.90;;;;;;5032737;28;20184;-85
2021/03/10 06:59:00;;;;;;;1.23;0.67;;;6.80;99.90;;;;;;5031779;28;20598;-84
2021/03/10 07:01:28;;;;;;;0.87;0.83;;;6.90;99.90;;;;;;5031097;28;20226;-83
2021/03/10 07:03:56;;;;;;;0.40;0.40;;;7.00;99.90;;;;;;5034454;28;20770;-85
2021/03/10 07:06:22;;;;;;;0.87;0.80;;;7.10;99.90;;;;;;5043836;28;20671;-84
2021/03/10 07:08:48;;;;;;;0.17;0.17;;;7.10;99.90;;;;;;5047353;28;20222;-84
2021/03/10 07:11:14;;;;;;;0.67;0.67;;;7.20;99.90;;;;;;5024470;28;20670;-84
2021/03/10 07:13:42;;;;;;;0.93;0.40;;;7.20;99.90;;;;;;5030651;28;20683;-85
2021/03/10 07:16:09;;;;;;;0.80;0.80;;;7.20;99.90;;;;;;5046736;28;20178;-84
2021/03/10 07:18:36;;;;;;;0.40;0.40;;;7.30;99.90;;;;;;5031486;28;20190;-84
2021/03/10 07:21:03;;;;;;;0.47;0.47;;;7.30;99.90;;;;;;5043026;28;20198;-86
2021/03/10 07:23:31;;;;;;;0.33;0.20;;;7.40;99.90;;;;;;5047361;28;20212;-86
2021/03/10 07:26:02;;;;;;;0.60;0.60;;;7.40;99.90;;;;;;5030018;28;20202;-86
2021/03/10 07:28:34;;;;;;;0.50;0.50;;;7.50;99.90;;;;;;5048300;28;20306;-85
2021/03/10 07:31:00;;;;;;;0.40;0.40;;;7.50;99.90;;;;;;5022576;28;20219;-86
2021/03/10 07:33:25;;;;;;;3.43;0.93;;;7.60;99.90;;;;;;5031831;28;20206;-87
2021/03/10 07:35:56;;;;;;;0.67;0.67;;;7.60;99.90;;;;;;5029562;28;20210;-85
2021/03/10 07:38:39;;;;;;;0.23;0.23;;;7.70;99.90;;;;;;5028758;28;20194;-86
2021/03/10 07:41:07;;;;;;;1.43;0.63;;;7.70;99.90;;;;;;5032760;28;20200;-85
2021/03/10 07:43:33;;;;;;;0.00;0.00;;;7.80;99.90;;;;;;5037065;28;20291;-86
2021/03/10 07:45:59;;;;;;;1.03;0.60;;;7.90;99.90;;;;;;5031602;28;20265;-87
2021/03/10 07:48:33;;;;;;;0.77;0.23;;;8.00;99.90;;;;;;5034885;28;20203;-86
2021/03/10 07:50:59;;;;;;;0.40;0.40;;;8.10;99.90;;;;;;5033736;28;20296;-86
2021/03/10 07:53:37;;;;;;;0.33;0.20;;;8.20;99.90;;;;;;5030252;28;20212;-86
2021/03/10 07:56:03;;;;;;;0.53;0.30;;;8.30;99.90;;;;;;5034472;28;20184;-86
2021/03/10 07:58:30;;;;;;;0.50;0.50;;;8.30;99.90;;;;;;5032998;28;20256;-85
2021/03/10 08:00:57;;;;;;;1.27;1.20;;;8.30;99.90;;;;;;5030189;28;20215;-86
2021/03/10 08:03:30;;;;;;;0.97;0.50;;;8.40;99.90;;;;;;5028177;28;20216;-85
2021/03/10 08:06:04;;;;;;;2.03;1.37;;;8.40;99.90;;;;;;5027262;28;20249;-85
2021/03/10 08:08:35;;;;;;;1.17;0.90;;;8.50;99.90;;;;;;5026823;28;20188;-86
2021/03/10 08:11:16;;;;;;;0.47;0.47;;;8.50;99.90;;;;;;5028794;28;20205;-85
2021/03/10 08:13:42;;;;;;;2.20;0.17;;;8.50;99.90;;;;;;5029931;28;20214;-85
2021/03/10 08:16:14;;;;;;;1.00;0.70;;;8.40;99.90;;;;;;5027675;28;20194;-86
2021/03/10 08:18:46;;;;;;;1.67;1.00;;;8.40;99.90;;;;;;5027912;28;20182;-86
2021/03/10 08:21:13;;;;;;;0.80;0.80;;;8.40;99.90;;;;;;5025439;28;20221;-86
2021/03/10 08:23:39;;;;;;;0.40;0.40;;;8.50;99.90;;;;;;5030230;28;20255;-85
2021/03/10 08:26:07;;;;;;;0.13;0.13;;;8.60;99.90;;;;;;5026679;28;20224;-86
2021/03/10 08:28:38;;;;;;;0.33;0.33;;;8.80;99.90;;;;;;5024139;28;20194;-85
2021/03/10 08:31:10;;;;;;;0.20;0.20;;;9.00;99.90;;;;;;5029062;28;20248;-85
2021/03/10 08:33:47;;;;;;;0.67;0.67;;;9.10;99.90;;;;;;5029160;28;20215;-85
2021/03/10 08:36:14;;;;;;;0.47;0.47;;;9.10;99.90;;;;;;5034300;28;20186;-85
2021/03/10 08:38:40;;;;;;;0.83;0.60;;;9.10;99.90;;;;;;5029011;28;20478;-85
2021/03/10 08:41:07;;;;;;;0.83;0.50;;;9.10;99.90;;;;;;5048335;28;20312;-85
2021/03/10 08:43:33;;;;;;;0.87;0.87;;;9.20;99.90;;;;;;5031546;28;20269;-86
2021/03/10 08:45:59;;;;;;;1.97;0.47;;;9.20;99.90;;;;;;5037939;28;20282;-85
2021/03/10 08:48:32;;;;;;;0.87;0.50;;;9.40;99.90;;;;;;5032011;28;20659;-85
2021/03/10 08:51:00;;;;;;;1.37;0.43;;;9.60;99.90;;;;;;5039070;28;20215;-85
2021/03/10 08:53:26;;;;;;;0.67;0.33;;;9.70;99.90;;;;;;5037390;28;20209;-84
2021/03/10 08:55:52;;;;;;;0.50;0.50;;;9.70;99.90;;;;;;5032019;28;20195;-85
2021/03/10 08:58:19;;;;;;;5.10;0.67;;;9.80;99.90;;;;;;5032573;28;20182;-85
2021/03/10 09:00:45;;;;;;;0.93;0.93;;;9.70;99.90;;;;;;5039167;28;20200;-85
2021/03/10 09:03:17;;;;;;;0.70;0.70;;;9.70;99.90;;;;;;5032725;28;20206;-85
2021/03/10 09:05:44;;;;;;;1.10;0.30;;;9.90;99.90;;;;;;5040330;28;20204;-85
2021/03/10 09:08:11;;;;;;;1.20;0.87;;;9.90;99.90;;;;;;5033707;28;20560;-85
2021/03/10 09:10:44;;;;;;;0.37;0.37;;;9.90;99.90;;;;;;5030326;28;20680;-84
2021/03/10 09:13:10;;;;;;;2.07;0.90;;;9.90;99.90;;;;;;5031417;28;20224;-84
2021/03/10 09:15:35;;;;;;;0.47;0.47;;;9.90;99.90;;;;;;5036548;28;20188;-85
2021/03/10 09:18:07;;;;;;;1.80;0.80;;;9.90;99.90;;;;;;5031529;28;20280;-84
2021/03/10 09:20:34;;;;;;;4.53;0.77;;;9.70;99.90;;;;;;5025702;28;20200;-85
2021/03/10 09:23:00;;;;;;;0.93;0.87;;;9.60;99.90;;;;;;5033126;28;20775;-86
2021/03/10 09:25:28;;;;;;;1.43;1.00;;;9.60;99.90;;;;;;5043810;28;20193;-85
2021/03/10 09:28:09;;;;;;;0.77;0.57;;;9.60;99.90;;;;;;5031154;28;20204;-85
2021/03/10 09:30:49;;;;;;;4.43;1.50;;;9.60;99.90;;;;;;5019965;28;20202;-82
2021/03/10 09:33:25;;;;;;;0.97;0.63;;;9.60;99.90;;;;;;5031341;28;20227;-84
2021/03/10 09:36:00;;;;;;;2.07;1.40;;;9.60;99.90;;;;;;5048819;28;20191;-84
2021/03/10 09:38:28;;;;;;;1.60;0.90;;;9.40;99.90;;;;;;5042774;28;20197;-85
2021/03/10 09:40:57;;;;;;;2.33;1.03;;;9.40;99.90;;;;;;5031282;28;20320;-85
2021/03/10 09:43:25;;;;;;;0.80;0.80;;;9.50;99.90;;;;;;5030917;28;20205;-84
2021/03/10 09:45:55;;;;;;;1.40;0.97;;;9.40;99.90;;;;;;5028816;28;20200;-85
2021/03/10 09:48:35;;;;;;;0.47;0.40;;;9.50;99.90;;;;;;5026740;28;20201;-84
2021/03/10 09:51:04;;;;;;;0.53;0.53;;;9.70;99.90;;;;;;5034703;28;20215;-85
2021/03/10 09:53:30;;;;;;;0.93;0.93;;;9.70;99.90;;;;;;5028829;28;20232;-85
2021/03/10 09:56:06;;;;;;;0.40;0.40;;;9.80;99.90;;;;;;5034394;28;20194;-86
2021/03/10 09:58:31;;;;;;;2.23;1.17;;;10.00;99.90;;;;;;5030152;28;20189;-85
2021/03/10 10:01:01;;;;;;;0.47;0.47;;;10.10;99.90;;;;;;5033942;28;20174;-85
2021/03/10 10:03:27;;;;;;;0.67;0.60;;;10.10;99.90;;;;;;5029370;28;20629;-85
2021/03/10 10:06:07;;;;;;;1.63;1.40;;;10.20;99.90;;;;;;5032202;28;20232;-84
2021/03/10 10:08:38;;;;;;;1.20;1.10;;;10.10;99.90;;;;;;5027487;28;20197;-85
2021/03/10 10:11:04;;;;;;;2.10;0.80;;;10.10;99.90;;;;;;5029672;28;20204;-83
2021/03/10 10:13:29;;;;;;;1.33;0.80;;;10.10;99.90;;;;;;5036218;28;20627;-84
2021/03/10 10:15:55;;;;;;;1.37;1.10;;;10.10;99.90;;;;;;5033196;28;20184;-85
2021/03/10 10:18:22;;;;;;;0.70;0.70;;;10.10;99.90;;;;;;5034706;28;20193;-85
2021/03/10 10:20:48;;;;;;;3.43;1.03;;;10.10;99.90;;;;;;5024472;28;20187;-84
2021/03/10 10:23:13;;;;;;;0.67;0.60;;;10.20;99.90;;;;;;5042715;28;20221;-86
2021/03/10 10:25:39;;;;;;;1.87;1.10;;;10.30;99.90;;;;;;5028658;28;20187;-84
2021/03/10 10:28:04;;;;;;;1.60;1.23;;;10.30;99.90;;;;;;5024417;28;20189;-84
2021/03/10 10:30:30;;;;;;;1.03;1.00;;;10.50;99.90;;;;;;5046785;28;20208;-85
2021/03/10 10:32:56;;;;;;;3.07;1.40;;;10.60;99.90;;;;;;5026913;28;20208;-85
2021/03/10 10:35:21;;;;;;;1.03;1.03;;;10.70;99.90;;;;;;5024963;28;20670;-84
2021/03/10 10:37:47;;;;;;;0.60;0.60;;;10.60;99.90;;;;;;5033318;28;20185;-84
2021/03/10 10:40:18;;;;;;;1.40;0.87;;;10.70;99.90;;;;;;5038289;28;20549;-84
2021/03/10 10:42:49;;;;;;;1.17;1.07;;;10.80;99.90;;;;;;5029291;28;20213;-84
2021/03/10 10:45:15;;;;;;;2.47;1.47;;;11.00;99.90;;;;;;5040155;28;20237;-85
2021/03/10 10:47:42;;;;;;;1.67;0.80;;;11.00;99.90;;;;;;5031949;28;20179;-84
2021/03/10 10:50:09;;;;;;;1.60;1.03;;;11.00;99.90;;;;;;5035670;28;20182;-84
2021/03/10 10:52:36;;;;;;;1.07;0.80;;;11.10;99.90;;;;;;5031024;28;20202;-85
2021/03/10 10:55:06;;;;;;;0.30;0.30;;;11.30;99.90;;;;;;5043766;28;20206;-85
2021/03/10 10:57:32;;;;;;;1.53;1.27;;;11.40;99.90;;;;;;5035071;28;20186;-85
2021/03/10 10:59:57;;;;;;;1.07;1.07;;;11.50;99.90;;;;;;5032750;28;20245;-86
2021/03/10 11:02:23;;;;;;;0.93;0.83;;;11.50;99.90;;;;;;5037162;28;20249;-85
2021/03/10 11:04:49;;;;;;;1.20;1.10;;;11.70;99.90;;;;;;5037419;28;20194;-85
2021/03/10 11:07:14;;;;;;;5.57;1.43;;;11.70;99.90;;;;;;5036452;28;20190;-86
2021/03/10 11:09:40;;;;;;;1.20;0.70;;;11.70;99.90;;;;;;5041212;28;20585;-84
2021/03/10 11:12:11;;;;;;;0.97;0.87;;;11.80;99.90;;;;;;5038810;28;20210;-85
2021/03/10 11:14:40;;;;;;;4.60;1.50;;;11.80;99.90;;;;;;5034868;28;20454;-84
2021/03/10 11:17:06;;;;;;;1.07;0.50;;;11.80;99.90;;;;;;5039431;28;20222;-86
2021/03/10 11:19:33;;;;;;;1.47;1.20;;;12.00;99.90;;;;;;5034658;28;20193;-87
2021/03/10 11:21:59;;;;;;;1.67;0.80;;;12.00;99.90;;;;;;5032149;28;20289;-85
2021/03/10 11:24:24;;;;;;;0.67;0.67;;;12.10;99.90;;;;;;5037101;28;20657;-85
2021/03/10 11:26:50;;;;;;;1.10;1.00;;;12.10;99.90;;;;;;5037309;28;20213;-86
2021/03/10 11:29:16;;;;;;;3.03;1.00;;;12.10;99.90;;;;;;5035443;28;20276;-85
2021/03/10 11:31:42;;;;;;;1.00;0.90;;;12.10;99.90;;;;;;5035638;28;20214;-85
2021/03/10 11:34:07;;;;;;;5.30;1.47;;;12.20;99.90;;;;;;5037712;28;20214;-86
2021/03/10 11:36:33;;;;;;;2.00;1.40;;;12.20;99.90;;;;;;5028379;28;20210;-87
2021/03/10 11:38:58;;;;;;;1.57;1.47;;;12.20;99.90;;;;;;5032274;28;20197;-86
2021/03/10 11:41:24;;;;;;;0.60;0.60;;;12.10;99.90;;;;;;5029291;28;20213;-86
2021/03/10 11:43:51;;;;;;;1.23;0.97;;;12.20;99.90;;;;;;5033008;28;20217;-87
2021/03/10 11:46:16;;;;;;;1.13;1.00;;;12.20;99.90;;;;;;5033478;28;20296;-86
2021/03/10 11:48:42;;;;;;;1.43;0.87;;;12.10;99.90;;;;;;5032227;28;20265;-86
2021/03/10 11:51:09;;;;;;;1.77;0.93;;;12.10;99.90;;;;;;5030499;28;20303;-86
2021/03/10 11:53:35;;;;;;;0.80;0.27;;;12.10;99.90;;;;;;5032449;28;20721;-86
2021/03/10 11:56:00;;;;;;;3.13;1.30;;;12.00;99.90;;;;;;5023796;28;20187;-86
2021/03/10 11:58:27;;;;;;;1.70;1.37;;;12.00;99.90;;;;;;5039373;28;20663;-85
2021/03/10 12:00:56;;;;;;;1.80;1.43;;;12.00;99.90;;;;;;5031180;28;20308;-86
2021/03/10 12:03:21;;;;;;;2.07;1.87;;;12.10;99.90;;;;;;5021760;28;20582;-85
2021/03/10 12:05:47;;;;;;;1.10;1.10;;;12.00;99.90;;;;;;5034757;28;20189;-85
2021/03/10 12:08:13;;;;;;;1.87;0.97;;;11.90;99.90;;;;;;5049553;28;20256;-86
2021/03/10 12:10:41;;;;;;;0.77;0.73;;;11.90;99.90;;;;;;5032841;28;20210;-86
2021/03/10 12:13:07;;;;;;;1.97;1.00;;;12.00;99.90;;;;;;5042104;28;20293;-86
2021/03/10 12:15:33;;;;;;;0.50;0.50;;;12.00;99.90;;;;;;5027616;28;20179;-85
2021/03/10 12:17:59;;;;;;;1.47;1.07;;;12.00;99.90;;;;;;5034255;28;20193;-85
2021/03/10 12:20:24;;;;;;;2.10;1.43;;;11.90;99.90;;;;;;5035239;28;20213;-86
2021/03/10 12:22:53;;;;;;;1.40;1.30;;;11.90;99.90;;;;;;5032892;28;20614;-86
2021/03/10 12:25:19;;;;;;;2.50;1.13;;;12.10;99.90;;;;;;5048422;28;20190;-86
2021/03/10 12:27:44;;;;;;;0.90;0.90;;;12.10;99.90;;;;;;5033493;28;20212;-86
2021/03/10 12:30:12;;;;;;;1.60;1.50;;;12.00;99.90;;;;;;5034872;28;20198;-87
2021/03/10 12:32:39;;;;;;;2.27;1.27;;;11.80;99.90;;;;;;5040237;28;20209;-86
2021/03/10 12:35:07;;;;;;;2.73;1.23;;;11.70;99.90;;;;;;5032541;28;20190;-86
2021/03/10 12:37:32;;;;;;;1.07;0.97;;;11.60;99.90;;;;;;5031834;28;20181;-85
2021/03/10 12:39:59;;;;;;;1.43;1.27;;;11.60;99.90;;;;;;5030806;28;20561;-86
2021/03/10 12:42:25;;;;;;;2.50;1.20;;;11.60;99.90;;;;;;5033363;28;20206;-85
2021/03/10 12:44:50;;;;;;;7.73;1.63;;;11.80;99.90;;;;;;5032695;28;20193;-85
2021/03/10 12:47:17;;;;;;;4.00;1.47;;;11.80;99.90;;;;;;5031175;28;20600;-84
2021/03/10 12:49:43;;;;;;;2.07;1.40;;;11.80;99.90;;;;;;5031634;28;20187;-85
2021/03/10 12:52:08;;;;;;;1.00;1.00;;;12.00;99.90;;;;;;5037871;28;20281;-85
2021/03/10 12:54:35;;;;;;;0.80;0.80;;;12.20;99.90;;;;;;5031008;28;20184;-85
2021/03/10 12:57:00;;;;;;;0.77;0.77;;;12.20;99.90;;;;;;5037745;28;20654;-85
2021/03/10 12:59:26;;;;;;;0.87;0.80;;;12.30;99.90;;;;;;5038900;28;20299;-86
2021/03/10 13:01:51;;;;;;;1.93;1.03;;;12.30;99.90;;;;;;5027655;28;20240;-85